Latest Weather Observations for Kempsey Airport

IDN60801

Issued at 6:05 pm EST Monday 21 April 2014 (issued every 30 minutes, with the page automatically refreshed every 10 minutes)

About weather observations | Map of weather stations | Latest weather observations for NSW | Other Formats
Station Details ID: 059007 Name: KEMPSEY AIRPORT AWS Lat: -31.07 Lon: 152.77 Height: 13.0 m
Data from the previous 72 hours. | See also: Recent months for locations in New South Wales
Date/Time
EST
Temp
°C
App
Temp
°C
Dew
Point
Rel
Hum
%
Delta-T
°C
Wind Press
QNH
hPa
Press
MSL
hPa
Rain
since 9 am
mm
Dir
 
Spd
km/h
Gust
km/h
Spd
kts
Gust
kts
21/06:00pm 17.6 18.2 11.8 69 3.2 ESE 0 0 0 0 1019.4 1019.4 0.0
21/05:30pm 19.0 19.5 11.6 62 4.1 ESE 0 0 0 0 1019.0 - 0.0
21/05:00pm 20.5 19.7 11.7 57 4.9 ESE 7 11 4 6 1018.7 1018.7 0.0
21/04:30pm 22.0 19.9 11.1 50 6.0 SE 13 17 7 9 1018.3 - 0.0
21/04:00pm 22.9 20.8 11.3 48 6.5 SE 13 17 7 9 1018.0 1018.0 0.0
21/03:30pm 23.4 21.4 11.5 47 6.7 SE 13 20 7 11 1017.7 - 0.0
21/03:00pm 24.3 22.6 12.6 48 6.7 ESE 13 20 7 11 1017.6 1017.6 0.0
21/02:30pm 24.2 21.8 11.5 45 7.2 E 15 20 8 11 1017.4 - 0.0
21/02:00pm 24.1 21.5 12.1 47 6.8 E 17 28 9 15 1017.4 1017.4 0.0
21/01:30pm 24.9 22.3 13.1 48 6.9 E 19 24 10 13 1017.4 - 0.0
21/01:00pm 25.2 22.3 11.0 41 8.0 E 17 22 9 12 1017.6 1017.6 0.0
21/12:30pm 26.6 24.6 7.1 29 10.3 ENE 7 13 4 7 1017.9 - 0.0
21/12:00pm 26.2 23.5 7.3 30 10.0 NNE 11 17 6 9 1018.4 1018.4 0.0
21/11:30am 25.7 24.1 6.3 29 10.1 NW 4 11 2 6 1019.0 - 0.0
21/11:00am 24.8 22.9 7.4 33 9.1 NW 7 11 4 6 1019.4 1019.4 0.0
21/10:30am 24.2 22.1 9.8 40 7.9 NNW 11 15 6 8 1019.8 - 0.0
21/10:00am 22.7 20.0 10.2 45 6.8 NW 15 19 8 10 1019.9 1019.9 0.0
21/09:30am 21.3 18.6 11.6 54 5.4 NW 17 20 9 11 1020.1 - 0.0
21/09:00am 19.9 18.0 13.1 65 3.8 WNW 15 19 8 10 1020.3 1020.3 0.2
21/08:30am 17.6 15.4 13.3 76 2.4 WNW 17 22 9 12 1020.3 - 0.2
21/08:00am 15.8 14.2 12.7 82 1.7 WNW 13 19 7 10 1020.1 1020.1 0.2
21/07:30am 14.7 13.9 11.8 83 1.6 W 7 9 4 5 1019.7 - 0.2
21/07:00am 13.6 10.4 11.8 89 1.0 WNW 20 26 11 14 1019.4 1019.4 0.2
21/06:30am 12.3 11.4 11.2 93 0.6 WSW 7 11 4 6 1019.0 - 0.0
21/06:00am 12.4 11.5 11.3 93 0.6 W 7 11 4 6 1018.5 1018.5 0.0
21/05:30am 12.9 11.8 12.0 94 0.5 W 9 15 5 8 1018.3 - 0.0
21/05:00am 12.2 11.3 11.3 94 0.5 WSW 7 9 4 5 1017.9 1017.9 0.0
21/04:30am 12.1 12.5 11.2 94 0.5 CALM 0 0 0 0 1017.7 - 0.0
21/04:00am 12.1 12.5 11.2 94 0.5 CALM 0 0 0 0 1017.4 1017.4 0.0
21/03:30am 12.4 12.5 11.5 94 0.5 W 2 6 1 3 1017.4 - 0.0
21/03:00am 12.5 11.3 11.6 94 0.5 W 9 9 5 5 1017.4 1017.4 0.0
21/02:30am 12.9 12.4 12.0 94 0.5 SW 6 7 3 4 1017.3 - 0.0
21/02:00am 12.3 11.5 11.0 92 0.7 SSW 6 7 3 4 1017.5 1017.5 0.0
21/01:30am 13.9 14.0 12.8 93 0.6 W 4 7 2 4 1017.6 - 0.0
21/01:00am 14.1 13.9 13.1 94 0.5 W 6 7 3 4 1017.6 1017.6 0.0
21/12:30am 14.4 14.1 13.4 94 0.6 WSW 7 9 4 5 1017.3 - 0.0
21/12:00am 14.3 14.6 13.3 94 0.6 W 4 7 2 4 1017.4 1017.4 0.0
 
Date/Time
EST
Temp
°C
App
Temp
°C
Dew
Point
Rel
Hum
%
Delta-T
°C
Wind Press
QNH
hPa
Press
MSL
hPa
Rain
since 9 am
mm
Dir
 
Spd
km/h
Gust
km/h
Spd
kts
Gust
kts
20/11:30pm 14.2 14.0 13.1 93 0.6 W 6 7 3 4 1017.5 - 0.0
20/11:00pm 14.3 14.1 13.0 92 0.7 WSW 6 7 3 4 1017.4 1017.4 0.0
20/10:30pm 15.2 15.2 14.1 93 0.6 W 7 9 4 5 1017.4 - 0.0
20/10:00pm 15.2 15.3 13.9 92 0.7 W 6 7 3 4 1017.4 1017.4 0.0
20/09:30pm 15.5 15.6 14.4 93 0.6 W 7 11 4 6 1017.3 - 0.0
20/09:00pm 15.1 14.9 13.6 91 0.8 W 7 7 4 4 1017.2 1017.2 0.0
20/08:30pm 15.6 15.2 14.1 91 0.8 W 9 9 5 5 1017.2 - 0.0
20/08:00pm 15.5 15.6 13.9 90 0.9 W 6 9 3 5 1017.1 1017.1 0.0
20/07:30pm 15.8 15.9 14.0 89 1.0 SW 6 7 3 4 1016.9 - 0.0
20/07:00pm 17.0 17.2 14.8 87 1.3 W 7 9 4 5 1016.6 1016.6 0.0
20/06:30pm 17.1 17.7 14.2 83 1.7 SSW 4 6 2 3 1016.5 - 0.0
20/06:00pm 18.5 18.8 14.4 77 2.4 ESE 6 7 3 4 1016.0 1016.0 0.0
20/05:30pm 20.7 20.8 15.5 72 3.1 ENE 9 11 5 6 1015.7 - 0.0
20/05:00pm 21.9 21.7 15.7 68 3.7 ENE 11 20 6 11 1015.4 1015.3 0.0
20/04:30pm 22.7 21.8 15.8 65 4.2 ENE 15 24 8 13 1015.1 - 0.0
20/04:00pm 23.3 21.8 15.4 61 4.7 ENE 17 24 9 13 1015.0 1014.9 0.0
20/03:30pm 23.9 22.5 14.6 56 5.5 ENE 15 20 8 11 1014.9 - 0.0
20/03:00pm 24.4 22.2 14.5 54 5.9 E 19 28 10 15 1014.8 1014.7 0.0
20/02:30pm 24.4 22.5 15.1 56 5.6 ENE 19 28 10 15 1014.6 - 0.0
20/02:00pm 24.6 22.9 14.7 54 5.9 ENE 17 24 9 13 1014.7 1014.6 0.0
20/01:30pm 24.7 22.8 15.3 56 5.7 E 19 28 10 15 1014.7 - 0.0
20/01:00pm 24.8 23.4 14.6 53 6.1 E 15 20 8 11 1015.0 1014.9 0.0
20/12:30pm 24.5 23.6 14.9 55 5.7 E 13 19 7 10 1015.6 - 0.0
20/12:00pm 23.9 23.2 14.3 55 5.7 ESE 11 17 6 9 1016.1 1016.1 0.0
20/11:30am 23.7 23.0 14.4 56 5.5 ESE 11 15 6 8 1016.7 - 0.0
20/11:00am 22.4 22.1 14.3 60 4.7 NE 9 17 5 9 1017.3 1017.3 0.0
20/10:30am 22.5 23.0 14.1 59 4.9 WNW 4 9 2 5 1017.8 - 0.0
20/10:00am 22.5 22.7 14.6 61 4.6 N 7 15 4 8 1018.1 1018.1 0.0
20/09:30am 21.4 21.6 14.8 66 3.9 NW 7 9 4 5 1018.3 - 0.0
20/09:00am 19.6 19.5 14.0 70 3.2 W 7 9 4 5 1018.4 1018.4 0.0
20/08:30am 17.9 17.0 13.8 77 2.3 WNW 11 15 6 8 1018.4 - 0.0
20/08:00am 16.3 15.6 13.2 82 1.7 WNW 9 17 5 9 1018.2 1018.2 0.0
20/07:30am 14.8 14.3 12.7 87 1.2 W 7 13 4 7 1018.0 - 0.0
20/07:00am 13.5 12.9 12.4 93 0.6 WSW 7 11 4 6 1017.7 1017.7 0.0
20/06:30am 12.4 11.6 11.1 92 0.7 W 6 9 3 5 1017.6 - 0.0
20/06:00am 12.4 11.4 11.1 92 0.7 W 7 9 4 5 1017.5 1017.5 0.0
20/05:30am 12.8 12.1 11.5 92 0.7 W 6 9 3 5 1017.0 - 0.0
20/05:00am 12.6 11.7 11.2 91 0.7 WSW 7 9 4 5 1016.9 1016.9 0.0
20/04:30am 13.5 12.8 12.1 91 0.8 WNW 7 11 4 6 1016.7 - 0.0
20/04:00am 13.5 13.0 12.2 92 0.7 W 6 9 3 5 1016.6 1016.6 0.0
20/03:30am 13.4 12.4 12.3 93 0.6 W 9 11 5 6 1016.5 - 0.0
20/03:00am 12.9 12.7 11.8 93 0.6 W 4 11 2 6 1016.6 1016.6 0.0
20/02:30am 12.8 13.3 11.7 93 0.6 CALM 0 0 0 0 1016.6 - 0.0
20/02:00am 12.4 12.8 11.1 92 0.7 CALM 0 0 0 0 1016.7 1016.7 0.0
20/01:30am 12.5 11.7 11.2 92 0.7 SSW 6 9 3 5 1016.7 - 0.0
20/01:00am 12.8 12.5 11.4 91 0.7 WSW 4 7 2 4 1016.9 1016.9 0.0
20/12:30am 12.9 12.2 11.3 90 0.8 WSW 6 9 3 5 1016.8 - 0.0
20/12:00am 13.9 13.6 12.6 92 0.7 W 6 7 3 4 1016.8 1016.8 0.0
 
Date/Time
EST
Temp
°C
App
Temp
°C
Dew
Point
Rel
Hum
%
Delta-T
°C
Wind Press
QNH
hPa
Press
MSL
hPa
Rain
since 9 am
mm
Dir
 
Spd
km/h
Gust
km/h
Spd
kts
Gust
kts
19/11:30pm 13.8 13.2 12.2 90 0.9 W 7 7 4 4 1016.8 - 0.0
19/11:00pm 14.4 13.8 12.4 88 1.1 W 7 9 4 5 1016.9 1016.9 0.0
19/10:30pm 14.7 14.2 12.6 87 1.1 WSW 7 9 4 5 1016.9 - 0.0
19/10:00pm 15.5 15.7 13.2 86 1.3 S 4 6 2 3 1017.2 1017.2 0.0
19/09:30pm 15.9 17.0 13.4 85 1.4 CALM 0 0 0 0 1017.1 - 0.0
19/09:00pm 16.2 15.6 13.5 84 1.5 WSW 9 11 5 6 1016.9 1016.9 0.0
19/08:30pm 16.8 16.3 13.9 83 1.6 WSW 9 11 5 6 1016.6 - 0.0
19/08:00pm 16.5 16.4 13.8 84 1.5 WSW 7 9 4 5 1016.4 1016.4 0.0
19/07:30pm 16.7 16.8 13.8 83 1.6 W 6 9 3 5 1016.0 - 0.0
19/07:00pm 17.0 17.7 13.3 79 2.1 WSW 2 7 1 4 1015.8 1015.7 0.0
19/06:30pm 17.7 18.6 12.8 73 2.7 CALM 0 0 0 0 1015.4 - 0.0
19/06:00pm 18.7 19.5 12.7 68 3.4 CALM 0 0 0 0 1015.0 1014.9 0.0
19/05:30pm 20.1 21.0 12.8 63 4.1 CALM 0 0 0 0 1014.6 - 0.0
19/05:00pm 21.1 21.6 12.8 59 4.7 SE 2 11 1 6 1014.1 1014.0 0.0
19/04:30pm 21.9 19.7 12.2 54 5.5 ESE 15 22 8 12 1013.5 - 0.0
19/04:00pm 22.9 20.5 12.8 53 5.8 ESE 17 24 9 13 1013.2 1013.1 0.0
19/03:30pm 23.8 21.4 12.8 50 6.3 ESE 17 20 9 11 1013.0 - 0.0
19/03:00pm 24.6 21.8 11.5 44 7.4 E 17 24 9 13 1012.9 1012.8 0.0
19/02:30pm 25.7 23.7 8.7 34 9.2 SE 9 20 5 11 1012.9 - 0.0
19/02:00pm 25.4 22.9 8.4 34 9.1 SSE 11 19 6 10 1013.0 1012.9 0.0
19/01:30pm 25.9 23.1 8.4 33 9.4 S 13 20 7 11 1013.2 - 0.0
19/01:00pm 25.4 21.8 6.6 30 9.8 SSW 15 22 8 12 1013.6 1013.5 0.0
19/12:30pm 25.7 22.9 8.7 34 9.2 S 13 22 7 12 1014.0 - 0.0
19/12:00pm 24.8 21.8 7.9 34 9.0 S 13 20 7 11 1014.6 1014.5 0.0
19/11:30am 24.6 22.3 9.0 37 8.4 SSW 11 20 6 11 1015.0 - 0.0
19/11:00am 23.8 22.5 10.1 42 7.5 SE 7 17 4 9 1015.6 1015.5 0.0
19/10:30am 23.3 21.0 9.0 40 7.7 SSW 11 17 6 9 1015.9 - 0.0
19/10:00am 22.5 21.2 11.3 49 6.2 W 9 13 5 7 1016.1 1016.1 0.0
19/09:30am 21.2 19.3 10.4 50 5.9 WNW 11 17 6 9 1016.2 - 0.0
19/09:00am 19.4 17.2 10.7 57 4.7 WNW 13 17 7 9 1016.3 1016.3 0.0
19/08:30am 17.5 15.6 10.4 63 3.8 WNW 11 17 6 9 1016.4 - 0.0
19/08:00am 15.7 13.4 10.5 71 2.7 WNW 13 19 7 10 1016.4 1016.4 0.0
19/07:30am 13.8 12.1 9.8 77 2.1 W 9 15 5 8 1016.1 - 0.0
19/07:00am 12.1 10.3 9.3 83 1.4 W 9 15 5 8 1015.9 1015.9 0.0
19/06:30am 10.9 8.5 8.7 86 1.1 W 11 15 6 8 1015.6 - 0.0
19/06:00am 9.8 8.5 7.7 87 1.0 WSW 4 7 2 4 1015.5 1015.4 0.0
19/05:30am 9.9 8.2 7.5 85 1.1 SW 6 11 3 6 1015.2 - 0.0
19/05:00am 11.0 9.0 8.8 86 1.1 W 9 13 5 7 1015.2 1015.1 0.0
19/04:30am 10.2 9.8 8.3 88 0.9 CALM 0 7 0 4 1015.1 - 0.0
19/04:00am 9.9 8.2 8.3 90 0.8 SW 7 9 4 5 1014.9 1014.8 0.0
19/03:30am 10.2 8.8 9.0 92 0.6 S 6 7 3 4 1014.8 - 0.0
19/03:00am 10.3 8.8 9.1 92 0.6 SW 7 9 4 5 1014.8 1014.7 0.0
19/02:30am 10.7 9.3 9.6 93 0.6 WSW 7 9 4 5 1015.0 - 0.0
19/02:00am 10.4 8.8 8.7 89 0.8 SW 7 9 4 5 1015.0 1014.9 0.0
19/01:30am 11.4 10.3 10.0 91 0.7 W 6 9 3 5 1015.2 - 0.0
19/01:00am 11.6 11.3 10.0 90 0.8 WSW 2 6 1 3 1015.6 1015.5 0.0
19/12:30am 12.2 12.1 10.8 91 0.7 W 2 6 1 3 1015.6 - 0.0
19/12:00am 12.5 11.2 11.2 92 0.7 W 9 15 5 8 1015.6 1015.5 0.0
 
Date/Time
EST
Temp
°C
App
Temp
°C
Dew
Point
Rel
Hum
%
Delta-T
°C
Wind Press
QNH
hPa
Press
MSL
hPa
Rain
since 9 am
mm
Dir
 
Spd
km/h
Gust
km/h
Spd
kts
Gust
kts
18/11:30pm 11.8 12.0 10.5 92 0.7 CALM 0 0 0 0 1015.6 - 0.0
18/11:00pm 11.2 11.2 9.8 91 0.7 CALM 0 0 0 0 1015.6 1015.5 0.0
18/10:30pm 11.4 11.5 10.0 91 0.7 CALM 0 0 0 0 1015.6 - 0.0
18/10:00pm 11.5 10.4 9.9 90 0.8 W 6 7 3 4 1015.6 1015.5 0.0
18/09:30pm 12.0 12.2 10.4 90 0.8 CALM 0 0 0 0 1015.5 - 0.0
18/09:00pm 12.6 12.8 10.7 88 1.0 CALM 0 0 0 0 1015.3 1015.2 0.0
18/08:30pm 12.8 13.0 10.5 86 1.2 CALM 0 0 0 0 1015.3 - 0.0
18/08:00pm 13.2 13.4 10.6 84 1.4 CALM 0 0 0 0 1015.1 1015.0 0.0
18/07:30pm 13.8 12.7 10.6 81 1.7 W 7 9 4 5 1015.0 - 0.0
18/07:00pm 15.1 14.8 11.5 79 1.9 W 4 9 2 5 1014.7 1014.6 0.0
18/06:30pm 16.1 16.5 11.3 73 2.6 CALM 0 0 0 0 1014.5 - 0.0

Other Formats:

Comma delimited format used in spreadsheet applications
http://www.bom.gov.au/fwo/IDN60801/IDN60801.94785.axf

JavaScript Object Notation format (JSON) in row-major order
http://www.bom.gov.au/fwo/IDN60801/IDN60801.94785.json